createdAt,value
2017-05-27T00:00:15.489Z,929.28
2017-05-27T00:00:35.485Z,929.25
2017-05-27T00:00:55.625Z,929.24
2017-05-27T00:01:15.065Z,929.21
2017-05-27T00:01:34.510Z,929.26
2017-05-27T00:01:54.493Z,929.31
2017-05-27T00:02:14.540Z,929.24
2017-05-27T00:02:34.602Z,929.24
2017-05-27T00:02:54.019Z,929.25
2017-05-27T00:03:14.054Z,929.24
2017-05-27T00:03:32.951Z,929.22
2017-05-27T00:03:52.986Z,929.2
2017-05-27T00:04:12.393Z,929.23
2017-05-27T00:04:32.384Z,929.24
2017-05-27T00:04:52.415Z,929.23
2017-05-27T00:05:12.388Z,929.24
2017-05-27T00:05:31.819Z,929.22
2017-05-27T00:05:52.033Z,929.21
2017-05-27T00:06:11.394Z,929.23
2017-05-27T00:06:31.380Z,929.25
2017-05-27T00:06:51.373Z,929.2
2017-05-27T00:07:10.206Z,929.21
2017-05-27T00:07:29.095Z,929.24
2017-05-27T00:07:49.045Z,929.26
2017-05-27T00:08:07.891Z,929.22
2017-05-27T00:08:27.289Z,929.29
2017-05-27T00:08:47.277Z,929.24
2017-05-27T00:09:06.705Z,929.23
2017-05-27T00:09:26.134Z,929.27
2017-05-27T00:09:45.544Z,929.29
2017-05-27T00:10:05.044Z,929.25
2017-05-27T00:10:24.457Z,929.26
2017-05-27T00:10:44.407Z,929.29
2017-05-27T00:11:03.882Z,929.29
2017-05-27T00:11:23.396Z,929.26
2017-05-27T00:11:43.376Z,929.25
2017-05-27T00:12:03.348Z,929.25
2017-05-27T00:12:21.692Z,929.25
2017-05-27T00:12:41.684Z,929.21
2017-05-27T00:13:01.677Z,929.28
2017-05-27T00:13:19.976Z,929.26
2017-05-27T00:13:39.936Z,929.28
2017-05-27T00:13:59.367Z,929.23
2017-05-27T00:14:18.779Z,929.24
2017-05-27T00:14:38.786Z,929.23
2017-05-27T00:14:58.764Z,929.24
2017-05-27T00:15:18.710Z,929.21
2017-05-27T00:15:38.104Z,929.25
2017-05-27T00:15:57.620Z,929.24
2017-05-27T00:16:16.999Z,929.2
2017-05-27T00:16:35.284Z,929.22
2017-05-27T00:16:54.698Z,929.27
2017-05-27T00:17:14.143Z,929.21
2017-05-27T00:17:32.432Z,929.27
2017-05-27T00:17:51.842Z,929.25
2017-05-27T00:18:11.277Z,929.24
2017-05-27T00:18:30.701Z,929.2
2017-05-27T00:18:50.122Z,929.21
2017-05-27T00:19:09.529Z,929.24
2017-05-27T00:19:29.544Z,929.23
2017-05-27T00:19:49.362Z,929.19
2017-05-27T00:20:09.346Z,929.2
2017-05-27T00:20:29.353Z,929.25
2017-05-27T00:20:48.950Z,929.26
2017-05-27T00:21:08.958Z,929.23
2017-05-27T00:21:27.828Z,929.22
2017-05-27T00:21:47.809Z,929.24
2017-05-27T00:22:07.845Z,929.26
2017-05-27T00:22:26.705Z,929.22
2017-05-27T00:22:46.701Z,929.27
2017-05-27T00:23:06.660Z,929.24
2017-05-27T00:23:26.068Z,929.26
2017-05-27T00:23:45.487Z,929.25
2017-05-27T00:24:05.509Z,929.28
2017-05-27T00:24:25.505Z,929.26
2017-05-27T00:24:45.473Z,929.3
2017-05-27T00:25:05.585Z,929.3
2017-05-27T00:25:25.587Z,929.32
2017-05-27T00:25:44.458Z,929.34
2017-05-27T00:26:04.423Z,929.3
2017-05-27T00:26:23.266Z,929.27
2017-05-27T00:26:43.300Z,929.29
2017-05-27T00:27:03.256Z,929.25
2017-05-27T00:27:22.672Z,929.31
2017-05-27T00:27:42.692Z,929.32
2017-05-27T00:28:02.704Z,929.31
2017-05-27T00:28:22.688Z,929.35
2017-05-27T00:28:42.716Z,929.29
2017-05-27T00:29:02.782Z,929.3
2017-05-27T00:29:22.209Z,929.33
2017-05-27T00:29:42.233Z,929.28
2017-05-27T00:30:02.225Z,929.31
2017-05-27T00:30:20.692Z,929.29
2017-05-27T00:30:40.654Z,929.31
2017-05-27T00:31:00.684Z,929.3
2017-05-27T00:31:20.696Z,929.31
2017-05-27T00:31:40.711Z,929.32
2017-05-27T00:32:00.668Z,929.32
2017-05-27T00:32:20.089Z,929.32
2017-05-27T00:32:39.556Z,929.28
2017-05-27T00:32:59.550Z,929.31
2017-05-27T00:33:19.618Z,929.35
2017-05-27T00:33:38.522Z,929.35
2017-05-27T00:33:59.777Z,929.31
2017-05-27T00:34:20.844Z,929.39
2017-05-27T00:34:40.270Z,929.38
2017-05-27T00:35:00.288Z,929.37
2017-05-27T00:35:20.310Z,929.38
2017-05-27T00:35:40.272Z,929.39
2017-05-27T00:36:00.383Z,929.41
2017-05-27T00:36:20.350Z,929.37
2017-05-27T00:36:40.365Z,929.37
2017-05-27T00:36:59.780Z,929.36
2017-05-27T00:37:19.225Z,929.37
2017-05-27T00:37:39.183Z,929.35
2017-05-27T00:37:59.380Z,929.39
2017-05-27T00:38:18.760Z,929.37
2017-05-27T00:38:38.221Z,929.38
2017-05-27T00:38:58.187Z,929.43
2017-05-27T00:39:18.157Z,929.44
2017-05-27T00:39:37.601Z,929.42
2017-05-27T00:39:57.578Z,929.44
2017-05-27T00:40:17.603Z,929.41
2017-05-27T00:40:37.134Z,929.39
2017-05-27T00:40:57.304Z,929.4
2017-05-27T00:41:17.192Z,929.45
2017-05-27T00:41:36.240Z,929.4
2017-05-27T00:41:56.191Z,929.43
2017-05-27T00:42:15.650Z,929.41
2017-05-27T00:42:35.661Z,929.42
2017-05-27T00:42:55.407Z,929.47
2017-05-27T00:43:30.768Z,929.44
2017-05-27T00:43:50.831Z,929.4
2017-05-27T00:44:24.898Z,929.43
2017-05-27T00:44:44.425Z,929.42
2017-05-27T00:45:04.804Z,929.43
2017-05-27T00:45:24.677Z,929.42
2017-05-27T00:45:45.100Z,929.43
2017-05-27T00:46:04.981Z,929.44
2017-05-27T00:46:24.387Z,929.42
2017-05-27T00:46:44.428Z,929.41
2017-05-27T00:47:03.898Z,929.42
2017-05-27T00:47:22.736Z,929.41
2017-05-27T00:47:42.717Z,929.41
2017-05-27T00:48:02.710Z,929.41
2017-05-27T00:48:22.710Z,929.42
2017-05-27T00:48:42.952Z,929.42
2017-05-27T00:49:02.485Z,929.43
2017-05-27T00:49:22.447Z,929.4
2017-05-27T00:49:41.279Z,929.4
2017-05-27T00:50:01.247Z,929.37
2017-05-27T00:50:20.689Z,929.42
2017-05-27T00:50:39.548Z,929.37
2017-05-27T00:50:59.519Z,929.4
2017-05-27T00:51:18.944Z,929.38
2017-05-27T00:51:38.448Z,929.41
2017-05-27T00:51:58.411Z,929.42
2017-05-27T00:52:18.419Z,929.43
2017-05-27T00:52:37.831Z,929.42
2017-05-27T00:52:57.833Z,929.37
2017-05-27T00:53:16.744Z,929.36
2017-05-27T00:53:36.201Z,929.38
2017-05-27T00:53:56.178Z,929.46
2017-05-27T00:54:16.163Z,929.41
2017-05-27T00:54:35.604Z,929.42
2017-05-27T00:54:55.587Z,929.44
2017-05-27T00:55:15.010Z,929.41
2017-05-27T00:55:35.066Z,929.4
2017-05-27T00:55:55.070Z,929.44
2017-05-27T00:56:13.936Z,929.45
2017-05-27T00:56:32.248Z,929.42
2017-05-27T00:56:52.283Z,929.45
2017-05-27T00:57:11.666Z,929.46
2017-05-27T00:57:31.693Z,929.48
2017-05-27T00:57:51.681Z,929.46
2017-05-27T00:58:11.152Z,929.48
2017-05-27T00:58:31.243Z,929.45
2017-05-27T00:58:50.659Z,929.49
2017-05-27T00:59:10.643Z,929.46
2017-05-27T00:59:30.093Z,929.47
2017-05-27T00:59:49.532Z,929.49
2017-05-27T01:00:09.023Z,929.5
2017-05-27T01:00:28.499Z,929.49
2017-05-27T01:00:47.935Z,929.46
2017-05-27T01:01:07.983Z,929.5
2017-05-27T01:01:26.327Z,929.44
2017-05-27T01:01:45.733Z,929.49
2017-05-27T01:02:05.723Z,929.46
2017-05-27T01:02:25.714Z,929.47
2017-05-27T01:02:45.783Z,929.46
2017-05-27T01:03:05.188Z,929.48
2017-05-27T01:03:24.633Z,929.5
2017-05-27T01:03:44.587Z,929.46
2017-05-27T01:04:04.558Z,929.49
2017-05-27T01:04:23.412Z,929.49
2017-05-27T01:04:43.368Z,929.48
2017-05-27T01:05:03.375Z,929.48
2017-05-27T01:05:22.786Z,929.47
2017-05-27T01:05:41.703Z,929.47
2017-05-27T01:06:01.095Z,929.49
2017-05-27T01:06:19.954Z,929.47
2017-05-27T01:06:39.933Z,929.49
2017-05-27T01:06:59.964Z,929.49
2017-05-27T01:07:19.355Z,929.51
2017-05-27T01:07:39.364Z,929.52
2017-05-27T01:07:58.801Z,929.5
2017-05-27T01:08:18.222Z,929.47
2017-05-27T01:08:37.131Z,929.49
2017-05-27T01:08:57.123Z,929.46
2017-05-27T01:09:17.115Z,929.45
2017-05-27T01:09:37.444Z,929.48
2017-05-27T01:09:57.256Z,929.49
2017-05-27T01:10:16.480Z,929.5
2017-05-27T01:10:35.904Z,929.45
2017-05-27T01:10:56.163Z,929.5
2017-05-27T01:11:15.562Z,929.5
2017-05-27T01:11:35.521Z,929.49
2017-05-27T01:11:55.543Z,929.51
2017-05-27T01:12:14.574Z,929.46
2017-05-27T01:12:34.555Z,929.47
2017-05-27T01:12:53.972Z,929.51
2017-05-27T01:13:13.417Z,929.44
2017-05-27T01:13:32.830Z,929.5
2017-05-27T01:13:52.812Z,929.54
2017-05-27T01:14:12.255Z,929.5
2017-05-27T01:14:32.254Z,929.5
2017-05-27T01:14:52.356Z,929.5
2017-05-27T01:15:12.401Z,929.56
2017-05-27T01:15:32.378Z,929.51
2017-05-27T01:15:51.776Z,929.54
2017-05-27T01:16:11.767Z,929.52
2017-05-27T01:16:30.633Z,929.53
2017-05-27T01:16:50.595Z,929.52
2017-05-27T01:17:10.036Z,929.53
2017-05-27T01:17:29.515Z,929.5
2017-05-27T01:17:49.090Z,929.5
2017-05-27T01:18:09.198Z,929.51
2017-05-27T01:18:28.623Z,929.52
2017-05-27T01:18:48.641Z,929.51
2017-05-27T01:19:08.649Z,929.5
2017-05-27T01:19:28.092Z,929.5
2017-05-27T01:19:48.069Z,929.54
2017-05-27T01:20:07.504Z,929.56
2017-05-27T01:20:26.953Z,929.58
2017-05-27T01:20:46.370Z,929.56
2017-05-27T01:21:06.384Z,929.57
2017-05-27T01:21:26.443Z,929.63
2017-05-27T01:21:45.857Z,929.61
2017-05-27T01:22:05.801Z,929.62
2017-05-27T01:22:25.199Z,929.61
2017-05-27T01:22:44.582Z,929.63
2017-05-27T01:23:04.654Z,929.62
2017-05-27T01:23:23.507Z,929.69
2017-05-27T01:23:43.492Z,929.69
2017-05-27T01:24:03.489Z,929.69
2017-05-27T01:24:22.917Z,929.68
2017-05-27T01:24:41.786Z,929.69
2017-05-27T01:25:01.193Z,929.68
2017-05-27T01:25:20.039Z,929.69
2017-05-27T01:25:39.707Z,929.66
2017-05-27T01:25:59.641Z,929.68
2017-05-27T01:26:19.677Z,929.67
2017-05-27T01:26:38.040Z,929.69
2017-05-27T01:26:58.048Z,929.69
2017-05-27T01:27:17.477Z,929.71
2017-05-27T01:27:37.409Z,929.69
2017-05-27T01:27:57.366Z,929.7
2017-05-27T01:28:16.781Z,929.69
2017-05-27T01:28:36.262Z,929.68
2017-05-27T01:28:56.347Z,929.67
2017-05-27T01:29:16.327Z,929.69
2017-05-27T01:29:35.775Z,929.66
2017-05-27T01:29:55.725Z,929.66
2017-05-27T01:30:15.697Z,929.7
2017-05-27T01:30:35.157Z,929.66
2017-05-27T01:30:54.611Z,929.71
2017-05-27T01:31:14.597Z,929.69
2017-05-27T01:31:34.066Z,929.72
2017-05-27T01:31:54.039Z,929.67
2017-05-27T01:32:13.441Z,929.69
2017-05-27T01:32:33.390Z,929.69
2017-05-27T01:32:53.360Z,929.71
2017-05-27T01:33:13.324Z,929.72
2017-05-27T01:33:32.739Z,929.73
2017-05-27T01:33:52.773Z,929.73
2017-05-27T01:34:12.321Z,929.71
2017-05-27T01:34:31.757Z,929.72
2017-05-27T01:34:51.766Z,929.75
2017-05-27T01:35:11.204Z,929.75
2017-05-27T01:35:31.189Z,929.78
2017-05-27T01:35:50.749Z,929.77
2017-05-27T01:36:10.948Z,929.76
2017-05-27T01:36:29.556Z,929.78
2017-05-27T01:36:49.558Z,929.76
2017-05-27T01:37:08.997Z,929.76
2017-05-27T01:37:28.988Z,929.74
2017-05-27T01:37:48.992Z,929.79
2017-05-27T01:38:08.976Z,929.79
2017-05-27T01:38:27.834Z,929.8
2017-05-27T01:38:47.812Z,929.79
2017-05-27T01:39:07.240Z,929.81
2017-05-27T01:39:26.646Z,929.79
2017-05-27T01:39:46.625Z,929.8
2017-05-27T01:40:07.154Z,929.8
2017-05-27T01:40:26.587Z,929.79
2017-05-27T01:40:45.483Z,929.79
2017-05-27T01:41:04.366Z,929.82
2017-05-27T01:41:23.851Z,929.79
2017-05-27T01:41:43.287Z,929.85
2017-05-27T01:42:02.722Z,929.83
2017-05-27T01:42:22.702Z,929.82
2017-05-27T01:42:42.208Z,929.81
2017-05-27T01:43:01.611Z,929.83
2017-05-27T01:43:21.558Z,929.84
2017-05-27T01:43:40.984Z,929.8
2017-05-27T01:44:00.994Z,929.8
2017-05-27T01:44:19.855Z,929.83
2017-05-27T01:44:39.290Z,929.81
2017-05-27T01:44:58.757Z,929.85
2017-05-27T01:45:18.774Z,929.8
2017-05-27T01:45:39.463Z,929.85
2017-05-27T01:45:58.876Z,929.81
2017-05-27T01:46:17.705Z,929.84
2017-05-27T01:46:36.552Z,929.85
2017-05-27T01:46:56.535Z,929.85
2017-05-27T01:47:16.532Z,929.87
2017-05-27T01:47:49.797Z,929.82
2017-05-27T01:48:09.785Z,929.91
2017-05-27T01:48:28.137Z,929.91
2017-05-27T01:48:47.718Z,929.89
2017-05-27T01:49:07.762Z,929.9
2017-05-27T01:49:26.724Z,929.89
2017-05-27T01:49:45.559Z,929.92
2017-05-27T01:50:04.990Z,929.97
2017-05-27T01:50:24.427Z,929.95
2017-05-27T01:50:43.275Z,929.96
2017-05-27T01:51:03.272Z,929.96
2017-05-27T01:51:22.718Z,929.96
2017-05-27T01:51:42.296Z,930
2017-05-27T01:52:02.342Z,929.97
2017-05-27T01:52:22.294Z,930.02
2017-05-27T01:52:42.252Z,929.98
2017-05-27T01:53:02.311Z,929.99
2017-05-27T01:53:22.280Z,929.99
2017-05-27T01:53:42.325Z,930.03
2017-05-27T01:54:01.743Z,930
2017-05-27T01:54:21.802Z,929.99
2017-05-27T01:54:41.809Z,930.01
2017-05-27T01:55:01.220Z,930.04
2017-05-27T01:55:20.628Z,930.08
2017-05-27T01:55:40.688Z,930.11
2017-05-27T01:56:00.661Z,930.07
2017-05-27T01:56:20.655Z,930.06
2017-05-27T01:56:40.605Z,930.09
2017-05-27T01:57:00.582Z,930.07
2017-05-27T01:57:19.994Z,930.07
2017-05-27T01:57:39.423Z,930.06
2017-05-27T01:57:59.503Z,930.09
2017-05-27T01:58:19.155Z,930.09
2017-05-27T01:58:38.844Z,930.08
2017-05-27T01:58:58.385Z,930.11
2017-05-27T01:59:17.832Z,930.05
2017-05-27T01:59:37.232Z,930.09
2017-05-27T01:59:57.232Z,930.05
2017-05-27T02:00:17.206Z,930.03
2017-05-27T02:00:36.632Z,930.03
2017-05-27T02:00:56.628Z,930.06
2017-05-27T02:01:16.596Z,930.06
2017-05-27T02:01:36.015Z,930.07
2017-05-27T02:01:55.458Z,930.05
2017-05-27T02:02:14.317Z,930.08
2017-05-27T02:02:34.499Z,930.03
2017-05-27T02:02:54.475Z,930.05
2017-05-27T02:03:13.908Z,930.03
2017-05-27T02:03:32.254Z,930.03
2017-05-27T02:03:52.243Z,930.01
2017-05-27T02:04:12.264Z,930.02
2017-05-27T02:04:32.257Z,930.05
2017-05-27T02:04:52.206Z,930.02
2017-05-27T02:05:12.202Z,930.03
2017-05-27T02:05:31.627Z,930.06
2017-05-27T02:05:51.027Z,930.06
2017-05-27T02:06:10.983Z,930.05
2017-05-27T02:06:30.988Z,930.04
2017-05-27T02:06:50.399Z,930.01
2017-05-27T02:07:10.362Z,930.07
2017-05-27T02:07:30.387Z,930.05
2017-05-27T02:07:49.782Z,930.06
2017-05-27T02:08:09.813Z,930.08
2017-05-27T02:08:29.360Z,930.05
2017-05-27T02:08:48.822Z,930.01
2017-05-27T02:09:08.821Z,930.04
2017-05-27T02:09:27.731Z,930.05
2017-05-27T02:09:47.180Z,930.08
2017-05-27T02:10:07.185Z,930.03
2017-05-27T02:10:26.595Z,930.03
2017-05-27T02:10:46.549Z,930.03
2017-05-27T02:11:06.505Z,930.03
2017-05-27T02:11:26.474Z,930.07
2017-05-27T02:11:46.468Z,930.04
2017-05-27T02:12:06.423Z,930.04
2017-05-27T02:12:25.834Z,930.01
2017-05-27T02:12:45.836Z,930.02
2017-05-27T02:13:05.279Z,930.03
2017-05-27T02:13:24.714Z,930.01
2017-05-27T02:13:44.121Z,930.02
2017-05-27T02:14:04.086Z,930.04
2017-05-27T02:14:22.956Z,930.01
2017-05-27T02:14:42.575Z,930.04
2017-05-27T02:15:02.029Z,930.05
2017-05-27T02:15:22.051Z,930.02
2017-05-27T02:15:41.620Z,930.03
2017-05-27T02:16:01.036Z,930.04
2017-05-27T02:16:20.475Z,930.08
2017-05-27T02:16:40.448Z,930.07
2017-05-27T02:16:59.855Z,930.06
2017-05-27T02:17:19.842Z,930.04
2017-05-27T02:17:39.364Z,930.06
2017-05-27T02:17:58.306Z,930.09
2017-05-27T02:18:17.674Z,930.1
2017-05-27T02:18:37.143Z,930.07
2017-05-27T02:18:56.583Z,930.07
2017-05-27T02:19:16.604Z,930.07
2017-05-27T02:19:36.044Z,930.07
2017-05-27T02:19:56.015Z,930.07
2017-05-27T02:20:16.229Z,930.07
2017-05-27T02:20:35.189Z,930.07
2017-05-27T02:20:55.468Z,930.05
2017-05-27T02:21:14.388Z,930.07
2017-05-27T02:21:34.373Z,930.04
2017-05-27T02:21:54.402Z,930.06
2017-05-27T02:22:14.570Z,930.03
2017-05-27T02:22:33.434Z,930.03
2017-05-27T02:22:53.442Z,930.06
2017-05-27T02:23:13.439Z,930.04
2017-05-27T02:23:33.421Z,930.08
2017-05-27T02:23:53.455Z,930.02
2017-05-27T02:24:13.429Z,930.04
2017-05-27T02:24:33.363Z,930.04
2017-05-27T02:24:52.790Z,930.04
2017-05-27T02:25:12.169Z,930.06
2017-05-27T02:25:31.610Z,930.04
2017-05-27T02:25:51.065Z,930.08
2017-05-27T02:26:11.108Z,930.04
2017-05-27T02:26:30.516Z,930.03
2017-05-27T02:26:49.933Z,930.06
2017-05-27T02:27:09.996Z,930.08
2017-05-27T02:27:29.423Z,930.06
2017-05-27T02:27:48.820Z,930.08
2017-05-27T02:28:08.246Z,930.08
2017-05-27T02:28:27.664Z,930.09
2017-05-27T02:28:47.075Z,930.08
2017-05-27T02:29:06.511Z,930.04
2017-05-27T02:29:25.895Z,930.08
2017-05-27T02:29:45.864Z,930.1
2017-05-27T02:30:05.811Z,930.07
2017-05-27T02:30:25.243Z,930.1
2017-05-27T02:30:45.535Z,930.12
2017-05-27T02:31:04.957Z,930.1
2017-05-27T02:31:24.366Z,930.13
2017-05-27T02:31:43.825Z,930.13
2017-05-27T02:32:03.805Z,930.09
2017-05-27T02:32:22.680Z,930.1
2017-05-27T02:32:42.682Z,930.13
2017-05-27T02:33:02.681Z,930.1
2017-05-27T02:33:22.103Z,930.11
2017-05-27T02:33:40.958Z,930.13
2017-05-27T02:34:00.974Z,930.13
2017-05-27T02:34:20.403Z,930.13
2017-05-27T02:34:40.376Z,930.12
2017-05-27T02:35:00.366Z,930.13
2017-05-27T02:35:19.791Z,930.11
2017-05-27T02:35:38.627Z,930.07
2017-05-27T02:35:58.597Z,930.07
2017-05-27T02:36:18.027Z,930.08
2017-05-27T02:36:38.039Z,930.04
2017-05-27T02:36:57.987Z,930.06
2017-05-27T02:37:16.847Z,930.09
2017-05-27T02:37:36.292Z,930.05
2017-05-27T02:37:56.296Z,930.06
2017-05-27T02:38:16.300Z,930.04
2017-05-27T02:38:35.155Z,930.08
2017-05-27T02:38:55.103Z,930.06
2017-05-27T02:39:13.967Z,930.08
2017-05-27T02:39:33.538Z,930.07
2017-05-27T02:39:53.641Z,930.08
2017-05-27T02:40:13.106Z,930.08
2017-05-27T02:40:32.529Z,930.1
2017-05-27T02:40:52.496Z,930.07
2017-05-27T02:41:11.364Z,930.1
2017-05-27T02:41:30.809Z,930.08
2017-05-27T02:41:50.806Z,930.09
2017-05-27T02:42:10.230Z,930.09
2017-05-27T02:42:29.659Z,930.11
2017-05-27T02:42:49.673Z,930.09
2017-05-27T02:43:09.105Z,930.08
2017-05-27T02:43:29.071Z,930.09
2017-05-27T02:43:49.066Z,930.07
2017-05-27T02:44:09.042Z,930.07
2017-05-27T02:44:29.004Z,930.02
2017-05-27T02:44:49.044Z,930.03
2017-05-27T02:45:09.019Z,930.03
2017-05-27T02:45:29.027Z,930.03
2017-05-27T02:45:49.722Z,930.03
2017-05-27T02:46:09.684Z,930.03
2017-05-27T02:46:29.084Z,930.05
2017-05-27T02:46:49.060Z,930.02
2017-05-27T02:47:09.049Z,930.03
2017-05-27T02:47:29.088Z,930.04
2017-05-27T02:47:49.090Z,930.05
2017-05-27T02:48:09.078Z,930.03
2017-05-27T02:48:29.054Z,930.01
2017-05-27T02:48:49.061Z,930.02
2017-05-27T02:49:09.050Z,929.99
2017-05-27T02:49:29.020Z,929.99
2017-05-27T02:49:49.020Z,930.02
2017-05-27T02:50:08.455Z,929.97
2017-05-27T02:50:27.897Z,930.02
2017-05-27T02:50:47.903Z,929.99
2017-05-27T02:51:07.918Z,929.99
2017-05-27T02:51:26.789Z,929.99
2017-05-27T02:51:46.766Z,929.97
2017-05-27T02:52:06.152Z,930
2017-05-27T02:52:25.565Z,929.96
2017-05-27T02:52:45.647Z,929.96
2017-05-27T02:53:05.057Z,929.99
2017-05-27T02:53:23.924Z,929.94
2017-05-27T02:53:43.912Z,929.94
2017-05-27T02:54:03.880Z,929.99
2017-05-27T02:54:23.326Z,929.97
2017-05-27T02:54:42.756Z,929.96
2017-05-27T02:55:02.749Z,929.94
2017-05-27T02:55:22.713Z,929.94
2017-05-27T02:55:42.128Z,929.95
2017-05-27T02:56:02.232Z,929.98
2017-05-27T02:56:20.548Z,929.99
2017-05-27T02:56:39.995Z,930
2017-05-27T02:57:00.008Z,929.97
2017-05-27T02:57:19.399Z,929.96
2017-05-27T02:57:39.347Z,930.01
2017-05-27T02:57:59.327Z,929.97
2017-05-27T02:58:19.318Z,929.96
2017-05-27T02:58:39.291Z,929.97
2017-05-27T02:58:59.285Z,929.97
2017-05-27T02:59:18.157Z,930
2017-05-27T02:59:38.139Z,929.97
2017-05-27T02:59:57.577Z,930
2017-05-27T03:00:17.552Z,930
2017-05-27T03:00:36.958Z,930
2017-05-27T03:00:56.904Z,930.02
2017-05-27T03:01:15.805Z,929.99
2017-05-27T03:01:35.223Z,930
2017-05-27T03:01:55.205Z,930.03
2017-05-27T03:02:13.476Z,930.03
2017-05-27T03:02:33.473Z,930
2017-05-27T03:02:53.437Z,930.05
2017-05-27T03:03:13.361Z,930.03
2017-05-27T03:03:32.953Z,930.04
2017-05-27T03:03:52.359Z,930.03
2017-05-27T03:04:12.347Z,930.07
2017-05-27T03:04:31.771Z,930.06
2017-05-27T03:04:51.187Z,930.06
2017-05-27T03:05:11.134Z,930.02
2017-05-27T03:05:30.547Z,930.05
2017-05-27T03:05:50.679Z,930.03
2017-05-27T03:06:10.085Z,930.01
2017-05-27T03:06:29.531Z,930.05
2017-05-27T03:06:49.411Z,930.05
2017-05-27T03:07:09.411Z,930.01
2017-05-27T03:07:29.381Z,929.99
2017-05-27T03:07:49.402Z,930
2017-05-27T03:08:08.818Z,930.02
2017-05-27T03:08:28.259Z,930.03
2017-05-27T03:08:48.252Z,929.97
2017-05-27T03:09:08.266Z,930
2017-05-27T03:09:27.699Z,930.02
2017-05-27T03:09:47.101Z,930.02
2017-05-27T03:10:06.515Z,930.01
2017-05-27T03:10:26.503Z,929.99
2017-05-27T03:10:46.493Z,930
2017-05-27T03:11:05.318Z,930.02
2017-05-27T03:11:24.739Z,929.97
2017-05-27T03:11:44.711Z,930
2017-05-27T03:12:04.851Z,930.01
2017-05-27T03:12:25.259Z,929.97
2017-05-27T03:12:45.311Z,929.96
2017-05-27T03:13:05.304Z,929.99
2017-05-27T03:13:25.482Z,929.98
2017-05-27T03:13:44.911Z,929.98
2017-05-27T03:14:05.024Z,929.95
2017-05-27T03:14:24.484Z,929.97
2017-05-27T03:14:43.363Z,929.95
2017-05-27T03:15:02.786Z,929.97
2017-05-27T03:15:22.717Z,930.02
2017-05-27T03:15:42.781Z,930.02
2017-05-27T03:16:02.814Z,929.98
2017-05-27T03:16:22.299Z,930.01
2017-05-27T03:16:41.723Z,930.03
2017-05-27T03:17:01.716Z,930.1
2017-05-27T03:17:21.162Z,930.03
2017-05-27T03:17:41.162Z,930.07
2017-05-27T03:18:00.617Z,930.04
2017-05-27T03:18:20.029Z,930.03
2017-05-27T03:18:40.008Z,930.06
2017-05-27T03:18:59.972Z,930.04
2017-05-27T03:19:19.983Z,930.07
2017-05-27T03:19:39.938Z,930.05
2017-05-27T03:19:59.374Z,930.06
2017-05-27T03:20:18.801Z,930.05
2017-05-27T03:20:38.227Z,930.03
2017-05-27T03:20:58.164Z,930.07
2017-05-27T03:21:17.588Z,930.08
2017-05-27T03:21:37.024Z,930.04
2017-05-27T03:21:57.090Z,930.05
2017-05-27T03:22:16.535Z,930.07
2017-05-27T03:22:36.526Z,930.06
2017-05-27T03:22:55.947Z,930.04
2017-05-27T03:23:15.989Z,930.03
2017-05-27T03:23:35.430Z,930.06
2017-05-27T03:23:55.457Z,930.04
2017-05-27T03:24:14.874Z,930.05
2017-05-27T03:24:34.290Z,930.04
2017-05-27T03:24:54.307Z,930.04
2017-05-27T03:25:14.299Z,930.01
2017-05-27T03:25:34.280Z,930.04
2017-05-27T03:25:53.698Z,930.02
2017-05-27T03:26:13.684Z,930.02
2017-05-27T03:26:33.123Z,930.06
2017-05-27T03:26:53.132Z,930.02
2017-05-27T03:27:13.114Z,930.03
2017-05-27T03:27:31.982Z,930.02
2017-05-27T03:27:52.001Z,930.03
2017-05-27T03:28:11.987Z,930.04
2017-05-27T03:28:31.433Z,930.05
2017-05-27T03:28:50.832Z,930.02
2017-05-27T03:29:10.802Z,930.04
2017-05-27T03:29:29.680Z,930.01
2017-05-27T03:29:49.673Z,930.04
2017-05-27T03:30:09.103Z,930.04
2017-05-27T03:30:28.513Z,930.03
2017-05-27T03:30:47.738Z,930.04
2017-05-27T03:31:07.742Z,930.03
2017-05-27T03:31:27.739Z,930.03
2017-05-27T03:31:47.152Z,930.04
2017-05-27T03:32:07.106Z,930.03
2017-05-27T03:32:26.554Z,930.04
2017-05-27T03:32:46.579Z,930.04
2017-05-27T03:33:05.976Z,930.03
2017-05-27T03:33:25.398Z,930.04
2017-05-27T03:33:45.369Z,930.04
2017-05-27T03:34:05.341Z,930.07
2017-05-27T03:34:25.311Z,930.07
2017-05-27T03:34:45.243Z,930.07
2017-05-27T03:35:04.117Z,930.04
2017-05-27T03:35:22.960Z,930.06
2017-05-27T03:35:42.393Z,930.05
2017-05-27T03:36:02.378Z,930.06
2017-05-27T03:36:21.250Z,930.04
2017-05-27T03:36:41.226Z,930.07
2017-05-27T03:37:00.645Z,930.05
2017-05-27T03:37:20.019Z,930.05
2017-05-27T03:37:38.354Z,930.06
2017-05-27T03:37:58.341Z,930.04
2017-05-27T03:38:16.642Z,930.06
2017-05-27T03:38:36.029Z,930.08
2017-05-27T03:38:55.985Z,930.11
2017-05-27T03:39:14.325Z,930.11
2017-05-27T03:39:33.763Z,930.12
2017-05-27T03:39:53.735Z,930.1
2017-05-27T03:40:13.161Z,930.09
2017-05-27T03:40:32.543Z,930.1
2017-05-27T03:40:52.547Z,930.09
2017-05-27T03:41:11.973Z,930.13
2017-05-27T03:41:30.897Z,930.12
2017-05-27T03:41:50.865Z,930.14
2017-05-27T03:42:10.843Z,930.12
2017-05-27T03:42:30.287Z,930.12
2017-05-27T03:42:49.151Z,930.07
2017-05-27T03:43:09.132Z,930.09
2017-05-27T03:43:28.586Z,930.1
2017-05-27T03:43:48.033Z,930.11
2017-05-27T03:44:07.454Z,930.14
2017-05-27T03:44:26.913Z,930.1
2017-05-27T03:44:46.882Z,930.09
2017-05-27T03:45:06.843Z,930.04
2017-05-27T03:45:26.312Z,930.06
2017-05-27T03:45:46.700Z,930.09
2017-05-27T03:46:06.085Z,930.06
2017-05-27T03:46:24.992Z,930.04
2017-05-27T03:46:45.035Z,930.02
2017-05-27T03:47:05.065Z,930.02
2017-05-27T03:47:24.462Z,930.03
2017-05-27T03:47:44.438Z,929.98
2017-05-27T03:48:03.822Z,930.02
2017-05-27T03:48:23.248Z,930.02
2017-05-27T03:48:42.614Z,930
2017-05-27T03:49:02.600Z,930
2017-05-27T03:49:22.007Z,930
2017-05-27T03:49:41.433Z,930.01
2017-05-27T03:50:01.412Z,929.98
2017-05-27T03:50:20.838Z,929.95
2017-05-27T03:50:40.823Z,929.99
2017-05-27T03:51:00.885Z,930
2017-05-27T03:51:20.836Z,930
2017-05-27T03:51:40.786Z,930
2017-05-27T03:52:00.750Z,930.02
2017-05-27T03:52:20.722Z,930
2017-05-27T03:52:39.588Z,929.98
2017-05-27T03:52:59.002Z,929.95
2017-05-27T03:53:19.042Z,930.01
2017-05-27T03:53:39.142Z,930.03
2017-05-27T03:53:59.150Z,930.01
2017-05-27T03:54:18.559Z,930.03
2017-05-27T03:54:38.552Z,930.03
2017-05-27T03:54:57.959Z,930.03
2017-05-27T03:55:18.029Z,930.02
2017-05-27T03:55:36.886Z,930.06
2017-05-27T03:55:56.892Z,930.08
2017-05-27T03:56:16.887Z,930.07
2017-05-27T03:56:36.296Z,930.11
2017-05-27T03:56:56.304Z,930.07
2017-05-27T03:57:15.784Z,930.06
2017-05-27T03:57:35.773Z,930.1
2017-05-27T03:57:55.220Z,930.09
2017-05-27T03:58:14.655Z,930.06
2017-05-27T03:58:34.076Z,930.1
2017-05-27T03:58:54.063Z,930.1
2017-05-27T03:59:13.498Z,930.07
2017-05-27T03:59:32.899Z,930.11
2017-05-27T03:59:52.860Z,930.09
2017-05-27T04:00:12.281Z,930.06
2017-05-27T04:00:32.239Z,930.06
2017-05-27T04:00:53.569Z,930.09
2017-05-27T04:01:13.023Z,930.04
2017-05-27T04:01:31.335Z,930.08
2017-05-27T04:01:51.296Z,930.09
2017-05-27T04:02:10.729Z,930.05
2017-05-27T04:02:30.740Z,930.08
2017-05-27T04:02:50.731Z,930.05
2017-05-27T04:03:10.695Z,930.04
2017-05-27T04:03:29.590Z,930.07
2017-05-27T04:03:49.043Z,930.02
2017-05-27T04:04:07.861Z,930.06
2017-05-27T04:04:27.295Z,930.04
2017-05-27T04:04:47.340Z,930.07
2017-05-27T04:05:07.615Z,930.05
2017-05-27T04:05:27.603Z,930.05
2017-05-27T04:05:47.954Z,930.05
2017-05-27T04:06:07.923Z,930.04
2017-05-27T04:06:27.912Z,930.05
2017-05-27T04:06:47.865Z,930.01
2017-05-27T04:07:07.851Z,930.01
2017-05-27T04:07:27.291Z,929.99